createdAt,value
2023-01-30T00:00:50.917Z,9.668029
2023-01-30T00:01:50.914Z,9.667974
2023-01-30T00:02:50.890Z,9.668096
2023-01-30T00:03:50.886Z,9.667937
2023-01-30T00:04:50.877Z,9.667953
2023-01-30T00:05:50.839Z,9.668057
2023-01-30T00:06:50.862Z,9.668061
2023-01-30T00:07:50.853Z,9.667996
2023-01-30T00:08:50.853Z,9.668040
2023-01-30T00:09:50.900Z,9.667959
2023-01-30T00:10:50.842Z,9.668004
2023-01-30T00:11:50.854Z,9.668023
2023-01-30T00:12:50.802Z,9.667967
2023-01-30T00:13:50.859Z,9.667912
2023-01-30T00:14:50.806Z,9.667908
2023-01-30T00:15:50.781Z,9.668046
2023-01-30T00:16:50.828Z,9.667978
2023-01-30T00:17:50.770Z,9.667959
2023-01-30T00:18:50.788Z,9.667968
2023-01-30T00:19:50.759Z,9.668038
2023-01-30T00:20:50.771Z,9.667952
2023-01-30T00:21:50.759Z,9.668013
2023-01-30T00:23:00.438Z,9.668005
2023-01-30T00:23:52.713Z,9.667849
2023-01-30T00:24:50.931Z,9.667777
2023-01-30T00:25:50.828Z,9.668045
2023-01-30T00:26:50.771Z,9.667940
2023-01-30T00:27:50.721Z,9.668042
2023-01-30T00:28:50.730Z,9.667906
2023-01-30T00:30:02.200Z,9.667913
2023-01-30T00:30:52.686Z,9.667965
2023-01-30T00:31:50.695Z,9.667993
2023-01-30T00:32:50.701Z,9.667927
2023-01-30T00:33:50.645Z,9.667954
2023-01-30T00:34:51.407Z,9.667866
2023-01-30T00:35:50.631Z,9.667971
2023-01-30T00:36:58.920Z,9.667977
2023-01-30T00:37:52.622Z,9.667978
2023-01-30T00:38:50.645Z,9.668008
2023-01-30T00:39:50.606Z,9.667963
2023-01-30T00:40:50.604Z,9.667993
2023-01-30T00:41:50.635Z,9.667989
2023-01-30T00:42:50.586Z,9.668000
2023-01-30T00:43:50.587Z,9.667999
2023-01-30T00:44:50.618Z,9.667999
2023-01-30T00:45:50.570Z,9.668009
2023-01-30T00:46:50.554Z,9.668017
2023-01-30T00:47:50.548Z,9.668027
2023-01-30T00:48:50.562Z,9.668021
2023-01-30T00:49:50.535Z,9.667984
2023-01-30T00:50:50.521Z,9.668000
2023-01-30T00:51:50.516Z,9.667880
2023-01-30T00:52:50.516Z,9.667997
2023-01-30T00:53:50.506Z,9.667999
2023-01-30T00:54:50.522Z,9.667922
2023-01-30T00:55:50.526Z,9.668034
2023-01-30T00:56:50.477Z,9.667989
2023-01-30T00:57:50.481Z,9.668008
2023-01-30T00:58:50.487Z,9.667953
2023-01-30T00:59:50.552Z,9.667948
2023-01-30T01:00:50.451Z,9.667961
2023-01-30T01:01:50.495Z,9.668010
2023-01-30T01:02:50.449Z,9.668020
2023-01-30T01:03:50.414Z,9.667966
2023-01-30T01:04:50.432Z,9.667972
2023-01-30T01:05:50.461Z,9.667983
2023-01-30T01:06:50.398Z,9.667972
2023-01-30T01:07:50.405Z,9.667965
2023-01-30T01:08:50.391Z,9.667946
2023-01-30T01:09:50.380Z,9.667945
2023-01-30T01:10:50.394Z,9.667943
2023-01-30T01:11:50.465Z,9.667930
2023-01-30T01:12:50.379Z,9.667893
2023-01-30T01:13:50.348Z,9.667848
2023-01-30T01:14:50.361Z,9.667819
2023-01-30T01:15:50.328Z,9.668011
2023-01-30T01:16:51.377Z,9.667998
2023-01-30T01:17:50.348Z,9.668015
2023-01-30T01:18:50.317Z,9.668002
2023-01-30T01:19:50.316Z,9.667924
2023-01-30T01:20:50.285Z,9.668004
2023-01-30T01:21:50.308Z,9.667950
2023-01-30T01:22:50.321Z,9.668012
2023-01-30T01:23:50.276Z,9.668039
2023-01-30T01:24:50.281Z,9.668053
2023-01-30T01:25:50.264Z,9.668008
2023-01-30T01:26:50.290Z,9.667946
2023-01-30T01:27:50.244Z,9.667905
2023-01-30T01:28:50.229Z,9.667925
2023-01-30T01:29:50.211Z,9.667906
2023-01-30T01:30:51.244Z,9.667968
2023-01-30T01:31:50.248Z,9.667981
2023-01-30T01:32:50.216Z,9.667996
2023-01-30T01:33:50.204Z,9.667937
2023-01-30T01:34:50.209Z,9.668048
2023-01-30T01:35:50.166Z,9.668000
2023-01-30T01:36:54.010Z,9.668002
2023-01-30T01:37:51.183Z,9.667927
2023-01-30T01:38:50.151Z,9.667941
2023-01-30T01:39:50.148Z,9.667946
2023-01-30T01:40:50.166Z,9.667959
2023-01-30T01:41:50.139Z,9.667892
2023-01-30T01:42:50.179Z,9.667946
2023-01-30T01:43:50.105Z,9.667925
2023-01-30T01:44:50.132Z,9.667925
2023-01-30T01:45:50.167Z,9.667926
2023-01-30T01:46:50.101Z,9.667999
2023-01-30T01:47:50.101Z,9.667960
2023-01-30T01:48:50.073Z,9.667944
2023-01-30T01:49:50.075Z,9.668008
2023-01-30T01:50:50.066Z,9.667992
2023-01-30T01:51:50.067Z,9.667882
2023-01-30T01:52:52.102Z,9.667951
2023-01-30T01:53:51.036Z,9.667992
2023-01-30T01:54:50.025Z,9.667934
2023-01-30T01:55:50.045Z,9.667825
2023-01-30T01:56:50.048Z,9.667928
2023-01-30T01:57:50.016Z,9.667922
2023-01-30T01:58:49.984Z,9.667963
2023-01-30T01:59:50.028Z,9.667970
2023-01-30T02:00:50.023Z,9.667936
2023-01-30T02:01:49.986Z,9.667945
2023-01-30T02:02:50.019Z,9.667928
2023-01-30T02:03:50.971Z,9.667962
2023-01-30T02:04:49.959Z,9.667914
2023-01-30T02:05:49.976Z,9.667987
2023-01-30T02:06:49.949Z,9.667974
2023-01-30T02:07:50.924Z,9.667976
2023-01-30T02:08:50.059Z,9.667969
2023-01-30T02:09:49.928Z,9.668116
2023-01-30T02:10:49.908Z,9.667901
2023-01-30T02:11:49.899Z,9.667981
2023-01-30T02:12:50.917Z,9.667907
2023-01-30T02:13:49.903Z,9.667953
2023-01-30T02:14:49.895Z,9.667931
2023-01-30T02:15:49.864Z,9.668032
2023-01-30T02:16:49.857Z,9.668027
2023-01-30T02:17:49.908Z,9.668001
2023-01-30T02:18:49.868Z,9.667995
2023-01-30T02:19:49.872Z,9.667919
2023-01-30T02:20:50.827Z,9.667959
2023-01-30T02:21:49.833Z,9.667933
2023-01-30T02:22:49.851Z,9.667983
2023-01-30T02:23:49.805Z,9.668010
2023-01-30T02:24:49.823Z,9.668053
2023-01-30T02:25:49.786Z,9.668030
2023-01-30T02:26:49.798Z,9.667986
2023-01-30T02:27:49.778Z,9.667959
2023-01-30T02:28:49.807Z,9.667961
2023-01-30T02:29:49.752Z,9.667980
2023-01-30T02:30:49.783Z,9.667956
2023-01-30T02:31:49.792Z,9.668004
2023-01-30T02:32:49.733Z,9.668016
2023-01-30T02:33:49.731Z,9.668023
2023-01-30T02:34:49.733Z,9.667997
2023-01-30T02:35:49.743Z,9.668002
2023-01-30T02:36:49.706Z,9.668060
2023-01-30T02:37:49.705Z,9.668044
2023-01-30T02:38:49.679Z,9.668027
2023-01-30T02:39:49.685Z,9.668034
2023-01-30T02:40:49.714Z,9.668055
2023-01-30T02:41:49.685Z,9.668095
2023-01-30T02:42:49.697Z,9.668014
2023-01-30T02:43:49.671Z,9.667994
2023-01-30T02:44:49.659Z,9.668010
2023-01-30T02:45:49.745Z,9.668034
2023-01-30T02:46:49.644Z,9.668053
2023-01-30T02:48:21.556Z,9.668042
2023-01-30T02:48:49.628Z,9.668005
2023-01-30T02:49:49.642Z,9.667980
2023-01-30T02:50:50.512Z,9.668028
2023-01-30T02:51:49.604Z,9.668008
2023-01-30T02:52:49.584Z,9.667992
2023-01-30T02:53:49.601Z,9.668029
2023-01-30T02:54:49.577Z,9.668035
2023-01-30T02:55:49.559Z,9.668007
2023-01-30T02:56:49.575Z,9.668051
2023-01-30T02:57:49.553Z,9.668074
2023-01-30T02:58:49.573Z,9.668026
2023-01-30T02:59:49.540Z,9.668017
2023-01-30T03:00:49.537Z,9.668030
2023-01-30T03:01:49.559Z,9.668025
2023-01-30T03:02:50.541Z,9.668008
2023-01-30T03:03:49.500Z,9.668008
2023-01-30T03:04:49.505Z,9.668020
2023-01-30T03:05:49.494Z,9.668029
2023-01-30T03:06:50.361Z,9.668022
2023-01-30T03:07:49.508Z,9.667994
2023-01-30T03:08:49.465Z,9.668021
2023-01-30T03:09:49.485Z,9.667984
2023-01-30T03:10:49.448Z,9.667991
2023-01-30T03:11:49.485Z,9.668031
2023-01-30T03:12:49.453Z,9.668034
2023-01-30T03:13:49.446Z,9.667961
2023-01-30T03:14:49.422Z,9.667983
2023-01-30T03:15:49.442Z,9.668027
2023-01-30T03:16:49.431Z,9.668023
2023-01-30T03:17:49.450Z,9.668017
2023-01-30T03:18:49.405Z,9.667996
2023-01-30T03:19:49.395Z,9.667997
2023-01-30T03:20:49.382Z,9.667994
2023-01-30T03:21:49.364Z,9.668027
2023-01-30T03:22:49.377Z,9.668008
2023-01-30T03:23:50.357Z,9.668002
2023-01-30T03:24:49.347Z,9.667989
2023-01-30T03:25:49.344Z,9.668037
2023-01-30T03:26:49.320Z,9.668009
2023-01-30T03:27:49.329Z,9.668047
2023-01-30T03:28:49.329Z,9.668045
2023-01-30T03:29:49.303Z,9.668032
2023-01-30T03:30:49.446Z,9.668036
2023-01-30T03:31:49.316Z,9.668033
2023-01-30T03:32:49.269Z,9.668014
2023-01-30T03:33:49.291Z,9.668054
2023-01-30T03:34:49.282Z,9.668020
2023-01-30T03:35:49.264Z,9.668041
2023-01-30T03:36:49.255Z,9.667993
2023-01-30T03:37:49.266Z,9.668048
2023-01-30T03:38:49.232Z,9.668024
2023-01-30T03:39:49.238Z,9.668008
2023-01-30T03:40:49.226Z,9.668013
2023-01-30T03:41:49.205Z,9.668024
2023-01-30T03:42:49.215Z,9.667981
2023-01-30T03:43:49.955Z,9.667976
2023-01-30T03:44:49.230Z,9.667929
2023-01-30T03:45:49.354Z,9.667953
2023-01-30T03:46:49.187Z,9.667951
2023-01-30T03:47:49.164Z,9.667961
2023-01-30T04:05:13.218Z,9.667947
2023-01-30T04:06:13.217Z,9.667911
2023-01-30T04:07:13.167Z,9.667977
2023-01-30T04:08:13.156Z,9.667947
2023-01-30T04:09:13.180Z,9.667862
2023-01-30T04:10:13.138Z,9.667937
2023-01-30T04:11:13.148Z,9.667969
2023-01-30T04:12:13.126Z,9.667987
2023-01-30T04:13:13.111Z,9.667987
2023-01-30T04:14:13.827Z,9.667933
2023-01-30T04:15:13.102Z,9.667764
2023-01-30T04:16:13.096Z,9.667855
2023-01-30T04:17:13.101Z,9.667928
2023-01-30T04:18:13.101Z,9.667847
2023-01-30T04:19:13.105Z,9.667938
2023-01-30T04:20:13.118Z,9.667930
2023-01-30T04:21:13.095Z,9.668004
2023-01-30T04:22:13.050Z,9.667974
2023-01-30T04:23:13.058Z,9.667952
2023-01-30T04:24:13.034Z,9.667886
2023-01-30T04:25:13.055Z,9.667898
2023-01-30T04:26:13.052Z,9.668021
2023-01-30T04:27:13.003Z,9.667939
2023-01-30T04:28:13.009Z,9.668002
2023-01-30T04:29:13.070Z,9.668044
2023-01-30T04:30:12.980Z,9.668060
2023-01-30T04:31:13.072Z,9.668089
2023-01-30T04:32:12.964Z,9.668029
2023-01-30T04:33:12.966Z,9.668058
2023-01-30T04:34:12.980Z,9.668045
2023-01-30T04:35:13.020Z,9.668025
2023-01-30T04:36:12.959Z,9.667979
2023-01-30T04:37:12.942Z,9.668060
2023-01-30T04:38:12.932Z,9.667995
2023-01-30T04:39:12.950Z,9.668013
2023-01-30T04:40:12.923Z,9.667973
2023-01-30T04:41:12.945Z,9.667978
2023-01-30T04:42:12.897Z,9.667993
2023-01-30T04:43:12.887Z,9.667992
2023-01-30T04:44:12.894Z,9.668006
2023-01-30T04:45:12.873Z,9.668022
2023-01-30T04:46:12.949Z,9.668026
2023-01-30T04:47:12.867Z,9.668044
2023-01-30T04:48:13.808Z,9.668080
2023-01-30T04:49:12.890Z,9.668070
2023-01-30T04:50:12.871Z,9.668043
2023-01-30T04:51:12.829Z,9.668022
2023-01-30T04:52:12.817Z,9.668017
2023-01-30T04:53:13.819Z,9.668000
2023-01-30T04:54:12.826Z,9.668026
2023-01-30T04:55:12.823Z,9.668027
2023-01-30T04:56:12.781Z,9.668009
2023-01-30T04:57:12.787Z,9.668002
2023-01-30T04:58:13.343Z,9.667997
2023-01-30T04:59:12.761Z,9.667985
2023-01-30T05:00:12.766Z,9.668008
2023-01-30T05:01:12.777Z,9.668019
2023-01-30T05:02:12.762Z,9.668002
2023-01-30T05:03:12.731Z,9.667996
2023-01-30T05:04:12.730Z,9.668056
2023-01-30T05:05:12.744Z,9.668031
2023-01-30T05:06:12.712Z,9.668069
2023-01-30T05:07:12.724Z,9.668079
2023-01-30T05:08:13.257Z,9.668054
2023-01-30T05:09:13.691Z,9.668020
2023-01-30T05:10:12.708Z,9.667992
2023-01-30T05:11:12.692Z,9.667989
2023-01-30T05:12:12.674Z,9.668026
2023-01-30T05:13:12.648Z,9.668020
2023-01-30T05:14:12.687Z,9.667997
2023-01-30T05:15:12.652Z,9.667990
2023-01-30T05:16:12.649Z,9.668019
2023-01-30T05:17:12.666Z,9.668013
2023-01-30T05:18:13.267Z,9.668007
2023-01-30T05:19:12.605Z,9.668018
2023-01-30T05:20:12.604Z,9.667988
2023-01-30T05:21:12.618Z,9.668000
2023-01-30T05:22:12.619Z,9.668006
2023-01-30T05:23:12.597Z,9.668039
2023-01-30T05:24:12.588Z,9.668020
2023-01-30T05:25:12.569Z,9.668056
2023-01-30T05:26:12.620Z,9.668010
2023-01-30T05:27:12.567Z,9.668040
2023-01-30T05:28:13.302Z,9.668028
2023-01-30T05:29:12.559Z,9.668043
2023-01-30T05:30:12.543Z,9.667981
2023-01-30T05:31:12.574Z,9.667993
2023-01-30T05:32:12.590Z,9.667966
2023-01-30T05:33:12.512Z,9.667977
2023-01-30T05:34:12.545Z,9.667988
2023-01-30T05:35:12.491Z,9.667993
2023-01-30T05:36:12.518Z,9.667982
2023-01-30T05:37:13.472Z,9.667994
2023-01-30T05:38:13.335Z,9.668011
2023-01-30T05:39:12.495Z,9.668035
2023-01-30T05:40:13.332Z,9.668008
2023-01-30T05:41:12.482Z,9.668058
2023-01-30T05:42:12.437Z,9.668016
2023-01-30T05:43:12.442Z,9.667999
2023-01-30T05:44:12.685Z,9.668042
2023-01-30T05:45:12.407Z,9.667998
2023-01-30T05:46:12.521Z,9.667996
2023-01-30T05:47:12.410Z,9.668026
2023-01-30T05:48:12.407Z,9.668015
2023-01-30T05:49:12.389Z,9.667971
2023-01-30T05:50:12.370Z,9.667999
2023-01-30T05:51:12.385Z,9.667985
2023-01-30T05:52:12.376Z,9.667998
2023-01-30T05:53:12.385Z,9.667969
2023-01-30T05:54:12.383Z,9.668019
2023-01-30T05:55:12.343Z,9.668017
2023-01-30T05:56:12.339Z,9.668036
2023-01-30T05:57:12.323Z,9.668026
2023-01-30T05:58:12.327Z,9.667996
2023-01-30T05:59:12.302Z,9.668048
2023-01-30T06:00:12.326Z,9.668043
2023-01-30T06:01:12.299Z,9.667999
2023-01-30T06:02:12.335Z,9.668019
2023-01-30T06:03:12.261Z,9.667981
2023-01-30T06:04:12.313Z,9.667967
2023-01-30T06:05:12.268Z,9.667979
2023-01-30T06:06:12.806Z,9.668010
2023-01-30T06:07:12.243Z,9.668012
2023-01-30T06:08:12.305Z,9.668023
2023-01-30T06:09:12.226Z,9.667945
2023-01-30T06:10:12.215Z,9.668010
2023-01-30T06:11:12.230Z,9.667984
2023-01-30T06:12:12.269Z,9.667974
2023-01-30T06:13:12.288Z,9.667974
2023-01-30T06:14:12.189Z,9.668023
2023-01-30T06:15:12.171Z,9.668015
2023-01-30T06:16:12.250Z,9.668022
2023-01-30T06:17:12.199Z,9.667970
2023-01-30T06:18:12.169Z,9.667974
2023-01-30T06:19:12.148Z,9.667998
2023-01-30T06:20:12.164Z,9.668026
2023-01-30T06:21:12.142Z,9.668001
2023-01-30T06:22:12.138Z,9.668008
2023-01-30T06:23:12.134Z,9.668062
2023-01-30T06:24:12.135Z,9.667997
2023-01-30T06:25:12.096Z,9.667926
2023-01-30T06:26:12.131Z,9.667989
2023-01-30T06:27:12.090Z,9.668039
2023-01-30T06:28:12.070Z,9.668011
2023-01-30T06:29:12.091Z,9.668010
2023-01-30T06:30:12.056Z,9.668063
2023-01-30T06:31:12.213Z,9.668126
2023-01-30T06:32:12.054Z,9.667971
2023-01-30T06:33:12.064Z,9.668024
2023-01-30T06:34:12.055Z,9.668078
2023-01-30T06:35:12.041Z,9.668003
2023-01-30T06:36:12.026Z,9.667980
2023-01-30T06:37:12.024Z,9.667944
2023-01-30T06:38:12.022Z,9.667973
2023-01-30T06:39:12.005Z,9.668011
2023-01-30T06:40:12.009Z,9.668005
2023-01-30T06:41:12.000Z,9.668001
2023-01-30T06:42:12.030Z,9.667978
2023-01-30T06:43:11.967Z,9.667951
2023-01-30T06:44:11.959Z,9.667997
2023-01-30T06:45:12.025Z,9.667988
2023-01-30T06:46:11.981Z,9.668074
2023-01-30T06:47:11.931Z,9.667998
2023-01-30T06:48:11.925Z,9.668021
2023-01-30T06:49:11.940Z,9.668020
2023-01-30T06:50:12.131Z,9.668043
2023-01-30T06:51:11.925Z,9.668009
2023-01-30T06:52:11.911Z,9.668011
2023-01-30T06:53:11.894Z,9.667994
2023-01-30T06:54:11.936Z,9.667986
2023-01-30T06:55:11.907Z,9.667996
2023-01-30T06:56:11.882Z,9.668022
2023-01-30T06:57:11.903Z,9.667972
2023-01-30T06:58:11.872Z,9.668013
2023-01-30T06:59:11.849Z,9.667995
2023-01-30T07:00:11.856Z,9.667979
2023-01-30T07:01:11.906Z,9.667948
2023-01-30T07:02:11.888Z,9.667951
2023-01-30T07:03:11.844Z,9.667960
2023-01-30T07:04:11.870Z,9.667999
2023-01-30T07:05:11.816Z,9.667957
2023-01-30T07:06:11.831Z,9.667999
2023-01-30T07:07:11.792Z,9.667995
2023-01-30T07:08:11.832Z,9.668022
2023-01-30T07:09:11.789Z,9.667949
2023-01-30T07:10:11.780Z,9.667974
2023-01-30T07:11:11.768Z,9.667911
2023-01-30T07:12:11.753Z,9.667904
2023-01-30T07:13:11.791Z,9.667943
2023-01-30T07:14:11.767Z,9.667910
2023-01-30T07:15:11.733Z,9.668027
2023-01-30T07:16:11.740Z,9.667762
2023-01-30T07:17:11.723Z,9.667899
2023-01-30T07:18:11.714Z,9.667849
2023-01-30T07:19:11.723Z,9.667859
2023-01-30T07:20:11.698Z,9.667834
2023-01-30T07:21:11.721Z,9.667820
2023-01-30T07:22:11.682Z,9.667791
2023-01-30T07:23:11.729Z,9.667872
2023-01-30T07:24:11.700Z,9.667947
2023-01-30T07:25:11.779Z,9.667860
2023-01-30T07:26:11.671Z,9.667868
2023-01-30T07:27:11.698Z,9.667853
2023-01-30T07:28:13.332Z,9.667860
2023-01-30T07:29:11.629Z,9.667833
2023-01-30T07:30:11.680Z,9.667864
2023-01-30T07:31:11.631Z,9.667938
2023-01-30T07:32:11.698Z,9.667806
2023-01-30T07:33:11.667Z,9.667982
2023-01-30T07:34:11.582Z,9.667980
2023-01-30T07:35:11.587Z,9.667994
2023-01-30T07:36:11.564Z,9.667990
2023-01-30T07:37:11.582Z,9.667960
2023-01-30T07:38:11.627Z,9.667994
2023-01-30T07:39:11.568Z,9.668009
2023-01-30T07:40:11.578Z,9.667979
2023-01-30T07:41:11.543Z,9.667998
2023-01-30T07:42:11.563Z,9.668010
2023-01-30T07:43:11.533Z,9.667992
2023-01-30T07:44:11.514Z,9.667983
2023-01-30T07:45:11.520Z,9.667978
2023-01-30T07:46:11.573Z,9.667961
2023-01-30T07:47:11.508Z,9.667974
2023-01-30T07:48:11.608Z,9.667987
2023-01-30T07:49:12.489Z,9.668013
2023-01-30T07:50:11.476Z,9.667960
2023-01-30T07:51:11.470Z,9.667970
2023-01-30T07:52:12.449Z,9.667999
2023-01-30T07:53:11.461Z,9.668012
2023-01-30T07:54:11.443Z,9.668027
2023-01-30T07:55:11.432Z,9.667957
2023-01-30T07:56:11.489Z,9.668031
2023-01-30T07:57:11.408Z,9.668047
2023-01-30T07:58:12.213Z,9.668008
2023-01-30T07:59:11.487Z,9.667892
2023-01-30T08:00:11.378Z,9.667921
2023-01-30T08:01:11.439Z,9.667965
2023-01-30T08:02:11.377Z,9.667931
2023-01-30T08:03:43.275Z,9.667856
2023-01-30T08:04:11.364Z,9.667928
2023-01-30T08:05:11.421Z,9.667911
2023-01-30T08:06:11.371Z,9.667996
2023-01-30T08:07:11.377Z,9.667920
2023-01-30T08:08:12.231Z,9.667933
2023-01-30T08:09:11.336Z,9.667908
2023-01-30T08:10:12.145Z,9.667909
2023-01-30T08:11:12.362Z,9.667916
2023-01-30T08:12:11.300Z,9.667926
2023-01-30T08:13:11.286Z,9.667940
2023-01-30T08:14:11.308Z,9.667914
2023-01-30T08:15:11.310Z,9.667935
2023-01-30T08:16:11.285Z,9.667914
2023-01-30T08:17:11.267Z,9.667925
2023-01-30T08:18:11.250Z,9.667982
2023-01-30T08:19:11.295Z,9.667949
2023-01-30T08:20:11.237Z,9.667968
2023-01-30T08:21:11.229Z,9.667953
2023-01-30T08:22:11.240Z,9.667949
2023-01-30T08:23:11.201Z,9.667912
2023-01-30T08:24:11.248Z,9.667892
2023-01-30T08:25:11.235Z,9.667956
2023-01-30T08:26:11.211Z,9.668012
2023-01-30T08:27:11.190Z,9.668022
2023-01-30T08:28:11.203Z,9.667990
2023-01-30T08:29:11.146Z,9.668020
2023-01-30T08:30:11.201Z,9.667975
2023-01-30T08:31:11.244Z,9.667974
2023-01-30T08:32:11.216Z,9.668009
2023-01-30T08:33:11.131Z,9.667980
2023-01-30T08:34:11.120Z,9.667954
2023-01-30T08:35:11.145Z,9.667996
2023-01-30T08:36:11.098Z,9.667967
2023-01-30T08:37:11.175Z,9.667975
2023-01-30T08:38:11.088Z,9.667981
2023-01-30T08:39:11.109Z,9.667969
2023-01-30T08:40:11.170Z,9.668010
2023-01-30T08:41:11.129Z,9.667997
2023-01-30T08:42:11.102Z,9.668004
2023-01-30T08:43:11.061Z,9.667988
2023-01-30T08:44:11.070Z,9.667992
2023-01-30T08:45:11.050Z,9.668005
2023-01-30T08:46:11.095Z,9.667994
2023-01-30T08:47:11.040Z,9.668001
2023-01-30T08:48:49.515Z,9.668000
2023-01-30T08:49:12.038Z,9.667983
2023-01-30T08:50:11.081Z,9.667998
2023-01-30T08:51:11.088Z,9.668009
2023-01-30T08:52:10.997Z,9.667994
2023-01-30T08:53:11.016Z,9.667990
2023-01-30T08:54:11.029Z,9.667977
2023-01-30T08:55:10.974Z,9.668032
2023-01-30T08:56:10.983Z,9.667977
2023-01-30T08:57:10.976Z,9.668007
2023-01-30T08:58:10.936Z,9.667949
2023-01-30T08:59:10.954Z,9.667962
2023-01-30T09:00:10.960Z,9.667982
2023-01-30T09:01:10.935Z,9.668012
2023-01-30T09:02:11.028Z,9.667968
2023-01-30T09:03:10.919Z,9.667960
2023-01-30T09:04:10.899Z,9.668027
2023-01-30T09:05:10.908Z,9.668005
2023-01-30T09:06:10.910Z,9.667957
2023-01-30T09:07:10.909Z,9.667964
2023-01-30T09:08:10.895Z,9.668000
2023-01-30T09:09:10.859Z,9.668029
2023-01-30T09:10:10.853Z,9.667993
2023-01-30T09:11:10.849Z,9.667922
2023-01-30T09:12:10.849Z,9.667949
2023-01-30T09:13:10.854Z,9.667964
2023-01-30T09:14:10.822Z,9.667974
2023-01-30T09:15:10.926Z,9.668026
2023-01-30T09:16:10.878Z,9.668014
2023-01-30T09:17:10.833Z,9.667978
2023-01-30T09:18:10.830Z,9.667853
2023-01-30T09:19:10.836Z,9.668002
2023-01-30T09:20:10.768Z,9.668030
2023-01-30T09:21:10.782Z,9.667972
2023-01-30T09:22:10.757Z,9.667932
2023-01-30T09:23:10.781Z,9.667969
2023-01-30T09:24:10.752Z,9.667947
2023-01-30T09:25:10.756Z,9.668037
2023-01-30T09:26:10.843Z,9.667992
2023-01-30T09:27:10.752Z,9.667975
2023-01-30T09:28:10.731Z,9.667909
2023-01-30T09:29:10.716Z,9.667895
2023-01-30T09:30:10.709Z,9.667927
2023-01-30T09:31:10.882Z,9.667993
2023-01-30T09:32:10.667Z,9.667932
2023-01-30T09:33:10.685Z,9.667949
2023-01-30T09:34:10.676Z,9.667988
2023-01-30T09:35:10.701Z,9.667983
2023-01-30T09:36:10.672Z,9.667990
2023-01-30T09:37:10.691Z,9.668000
2023-01-30T09:38:10.658Z,9.668011
2023-01-30T09:39:10.683Z,9.667994
2023-01-30T09:40:10.648Z,9.667968
2023-01-30T09:41:10.632Z,9.667954
2023-01-30T09:42:10.614Z,9.667942
2023-01-30T09:43:10.615Z,9.667916
2023-01-30T09:44:10.630Z,9.667913
2023-01-30T09:45:10.607Z,9.667994
2023-01-30T09:46:10.650Z,9.667972
2023-01-30T09:47:10.673Z,9.668011
2023-01-30T09:48:10.570Z,9.667969
2023-01-30T09:49:10.556Z,9.667980
2023-01-30T09:50:10.573Z,9.667996
2023-01-30T09:51:10.529Z,9.667979
2023-01-30T09:52:10.620Z,9.667898
2023-01-30T09:53:10.533Z,9.667865
2023-01-30T09:54:10.554Z,9.667906
2023-01-30T09:55:10.522Z,9.667921
2023-01-30T09:56:10.550Z,9.667962
2023-01-30T09:57:20.890Z,9.667814
2023-01-30T09:58:11.815Z,9.667808
2023-01-30T09:59:10.495Z,9.668043
2023-01-30T10:00:10.464Z,9.668034
2023-01-30T10:01:10.455Z,9.667976
2023-01-30T10:02:10.453Z,9.667995
2023-01-30T10:03:10.511Z,9.667943
2023-01-30T10:04:10.484Z,9.667906
2023-01-30T10:05:10.548Z,9.668009
2023-01-30T10:06:10.435Z,9.667985
2023-01-30T10:07:10.471Z,9.668006
2023-01-30T10:08:10.399Z,9.667985
2023-01-30T10:09:10.413Z,9.668057
2023-01-30T10:10:10.415Z,9.668060
2023-01-30T10:11:10.963Z,9.668028
2023-01-30T10:12:11.382Z,9.667992
2023-01-30T10:13:10.367Z,9.667962
2023-01-30T10:14:10.344Z,9.667976
2023-01-30T10:15:10.369Z,9.667963
2023-01-30T10:16:10.363Z,9.667994
2023-01-30T10:17:10.336Z,9.668027
2023-01-30T10:18:10.360Z,9.668096
2023-01-30T10:19:10.339Z,9.668129
2023-01-30T10:20:10.409Z,9.668114
2023-01-30T10:21:10.368Z,9.668109
2023-01-30T10:22:10.289Z,9.668096
2023-01-30T10:23:10.288Z,9.668076
2023-01-30T10:24:10.301Z,9.668116
2023-01-30T10:25:10.267Z,9.668107
2023-01-30T10:26:10.360Z,9.668118
2023-01-30T10:27:10.290Z,9.668077
2023-01-30T10:28:10.265Z,9.668075
2023-01-30T10:29:10.392Z,9.668021
2023-01-30T10:30:10.307Z,9.668100
2023-01-30T10:31:10.396Z,9.668146
2023-01-30T10:32:10.321Z,9.668070
2023-01-30T10:33:10.212Z,9.668098
2023-01-30T10:34:42.621Z,9.668097
2023-01-30T10:35:43.169Z,9.668060
2023-01-30T10:36:10.190Z,9.668090
2023-01-30T10:37:10.219Z,9.668037
2023-01-30T10:38:11.213Z,9.668035
2023-01-30T10:39:10.171Z,9.668000
2023-01-30T10:40:10.163Z,9.667995
2023-01-30T10:41:10.259Z,9.667987
2023-01-30T10:42:11.012Z,9.667997
2023-01-30T10:43:11.213Z,9.667993
2023-01-30T10:44:10.168Z,9.667961
2023-01-30T10:45:10.146Z,9.667966
2023-01-30T10:46:10.347Z,9.667952
2023-01-30T10:47:10.108Z,9.667963
2023-01-30T10:48:10.135Z,9.668012
2023-01-30T10:49:10.158Z,9.668010
2023-01-30T10:50:10.220Z,9.668041
2023-01-30T10:51:10.088Z,9.668041
2023-01-30T10:52:10.066Z,9.668043
2023-01-30T10:53:10.085Z,9.668026
2023-01-30T10:54:10.138Z,9.668006
2023-01-30T10:55:10.050Z,9.667988
2023-01-30T10:56:10.064Z,9.668060
2023-01-30T10:57:10.071Z,9.668037
2023-01-30T10:58:10.027Z,9.668088
2023-01-30T10:59:10.087Z,9.668057
2023-01-30T11:00:10.020Z,9.668013
2023-01-30T11:01:10.005Z,9.668077
2023-01-30T11:02:10.009Z,9.668023
2023-01-30T11:03:10.078Z,9.668057
2023-01-30T11:04:10.047Z,9.668037
2023-01-30T11:05:09.978Z,9.668083
2023-01-30T11:06:09.978Z,9.668032
2023-01-30T11:07:09.958Z,9.668039
2023-01-30T11:08:09.944Z,9.668001
2023-01-30T11:09:10.034Z,9.668076
2023-01-30T11:10:09.975Z,9.668015
2023-01-30T11:11:09.921Z,9.668051
2023-01-30T11:12:09.906Z,9.668071
2023-01-30T11:13:09.926Z,9.668089
2023-01-30T11:14:09.910Z,9.668099
2023-01-30T11:15:09.927Z,9.668059
2023-01-30T11:16:09.942Z,9.668076
2023-01-30T11:17:09.907Z,9.668116
2023-01-30T11:18:50.641Z,9.668091
2023-01-30T11:19:21.547Z,9.668077
2023-01-30T11:20:13.496Z,9.668092
2023-01-30T11:21:10.829Z,9.668137
2023-01-30T11:22:09.834Z,9.668124
2023-01-30T11:23:09.845Z,9.668074
2023-01-30T11:24:09.804Z,9.668095
2023-01-30T11:25:09.840Z,9.668096
2023-01-30T11:26:11.960Z,9.668082
2023-01-30T11:27:10.839Z,9.668082
2023-01-30T11:28:09.805Z,9.668129
2023-01-30T11:29:09.781Z,9.668119
2023-01-30T11:30:09.766Z,9.668099
2023-01-30T11:31:09.819Z,9.668103
2023-01-30T11:32:09.750Z,9.668069
2023-01-30T11:33:11.501Z,9.668076
2023-01-30T11:34:09.731Z,9.668036
2023-01-30T11:35:09.764Z,9.668133
2023-01-30T11:36:09.718Z,9.668103
2023-01-30T11:37:09.760Z,9.668129
2023-01-30T11:38:09.717Z,9.668193
2023-01-30T11:39:09.692Z,9.668081
2023-01-30T11:40:09.705Z,9.668143
2023-01-30T11:41:09.726Z,9.668120
2023-01-30T11:42:09.678Z,9.668082
2023-01-30T11:43:09.670Z,9.668088
2023-01-30T11:44:09.696Z,9.668061
2023-01-30T11:45:17.928Z,9.668088
2023-01-30T11:46:11.705Z,9.668118
2023-01-30T11:47:09.649Z,9.668115
2023-01-30T11:48:23.469Z,9.668117
2023-01-30T11:49:45.069Z,9.668083
2023-01-30T11:50:12.412Z,9.668046
2023-01-30T11:51:09.620Z,9.668079
2023-01-30T11:52:09.623Z,9.668106
2023-01-30T11:53:09.575Z,9.668128
2023-01-30T11:54:09.585Z,9.668157
2023-01-30T11:55:09.609Z,9.668119
2023-01-30T11:56:11.611Z,9.668117
2023-01-30T11:57:09.586Z,9.668147
2023-01-30T11:58:09.599Z,9.668144
2023-01-30T11:59:09.591Z,9.668087
2023-01-30T12:00:09.520Z,9.668064
2023-01-30T12:01:09.663Z,9.668065